Latest Coastal Weather Observations for Redcliffe

IDQ60701

Issued at 12:21 pm EST Monday 30 March 2015 (issued every 10 minutes, with the page automatically refreshed every 10 minutes)

About coastal observations | Map of coastal stations | Coastal observations for QLD | Marine services | Other Formats
Station Details ID: 040958 Name: REDCLIFFE Lat: -27.22 Lon: 153.09 Height: 12.6 m
Data from the previous 72 hours. | See also: Recent months at Redcliffe
Date/Time
EST
Temp

°C
Wind Pressure Rain
since 9am
mm
Weather Cloud Vis
km
Sea
Height
m
Swell
Dir
 
Speed
knots
Gust
knots
hPa Trend Height
m
Period
s
Dir
30/12:00pm 25.8 ENE 11 14 1022.1 - 0.0 - - - - - - -
30/11:30am 25.8 E 9 10 1022.6 - 0.0 - - - - - - -
30/11:00am 26.3 E 8 10 1023.4 - 0.0 - - - - - - -
30/10:30am 25.7 E 7 8 1024.1 - 0.0 - - - - - - -
30/10:00am 25.6 E 8 11 1023.7 - 0.0 - - - - - - -
30/09:30am 24.9 ENE 9 11 1023.7 - 0.0 - - - - - - -
30/09:00am 24.8 E 9 12 1023.9 - 0.0 - - - - - - -
30/08:30am 24.8 ENE 10 14 1023.3 - 0.0 - - - - - - -
30/08:00am 25.2 ENE 10 12 1023.6 - 0.0 - - - - - - -
30/07:30am 25.1 ENE 11 14 1022.9 - 0.0 - - - - - - -
30/07:00am 23.9 ENE 10 12 1022.7 - 0.0 - - - - - - -
30/06:30am 23.7 ENE 10 13 1022.4 - 0.0 - - - - - - -
30/06:00am 23.7 NE 10 13 1022.2 - 0.0 - - - - - - -
30/05:30am 23.6 NE 10 12 1021.8 - 0.0 - - - - - - -
30/05:00am 23.6 ENE 11 14 1021.6 - 0.0 - - - - - - -
30/04:30am 23.6 ENE 11 14 1021.2 - 0.0 - - - - - - -
30/04:00am 23.7 ENE 12 15 1020.9 - 0.0 - - - - - - -
30/03:30am 23.7 ENE 11 15 1021.2 - 0.0 - - - - - - -
30/03:00am 23.7 ENE 10 14 1021.3 - 0.0 - - - - - - -
30/02:30am 23.8 ENE 10 15 1021.4 - 0.0 - - - - - - -
30/02:00am 23.8 ENE 11 14 1021.5 - 0.0 - - - - - - -
30/01:30am 23.7 ENE 10 12 1021.7 - 0.0 - - - - - - -
30/01:00am 23.6 ENE 9 11 1021.9 - 0.0 - - - - - - -
30/12:30am 23.7 NE 10 12 1022.3 - 0.0 - - - - - - -
30/12:00am 23.7 ENE 9 13 1022.4 - 0.0 - - - - - - -
 
Date/Time
EST
Temp

°C
Wind Pressure Rain
since 9am
mm
Weather Cloud Vis
km
Sea
Height
m
Swell
Dir
 
Speed
knots
Gust
knots
hPa Trend Height
m
Period
s
Dir
29/11:30pm 23.7 ENE 8 10 1022.7 - 0.0 - - - - - - -
29/11:00pm 23.9 ENE 9 10 1022.8 - 0.0 - - - - - - -
29/10:30pm 24.0 ENE 10 13 1022.4 - 0.0 - - - - - - -
29/10:00pm 24.0 ENE 12 14 1022.6 - 0.0 - - - - - - -
29/09:30pm 23.9 ENE 11 13 1022.9 - 0.0 - - - - - - -
29/09:00pm 24.1 ENE 10 12 1023.2 - 0.0 - - - - - - -
29/08:30pm 23.8 ENE 9 11 1023.3 - 0.0 - - - - - - -
29/08:00pm 24.0 ENE 8 10 1022.9 - 0.0 - - - - - - -
29/07:30pm 24.1 ENE 9 14 1022.3 - 0.0 - - - - - - -
29/07:00pm 24.2 ENE 11 14 1021.9 - 0.0 - - - - - - -
29/06:30pm 24.4 ENE 10 12 1021.6 - 0.0 - - - - - - -
29/06:00pm 24.5 ENE 10 12 1021.3 - 0.0 - - - - - - -
29/05:30pm 24.9 ENE 10 13 1021.2 - 0.0 - - - - - - -
29/05:00pm 25.3 ENE 9 11 1021.1 - 0.0 - - - - - - -
29/04:30pm 25.7 ENE 9 12 1021.1 - 0.0 - - - - - - -
29/04:00pm 25.8 ENE 10 11 1020.9 - 0.0 - - - - - - -
29/03:30pm 26.0 E 9 12 1020.8 - 0.0 - - - - - - -
29/03:00pm 26.1 E 9 11 1021.0 - 0.0 - - - - - - -
29/02:30pm 26.5 E 9 10 1021.0 - 0.0 - - - - - - -
29/02:00pm 26.3 E 9 12 1021.2 - 0.0 - - - - - - -
29/01:30pm 26.4 E 8 10 1021.3 - 0.0 - - - - - - -
29/01:00pm 26.4 E 9 11 1021.6 - 0.0 - - - - - - -
29/12:30pm 26.5 E 10 12 1022.1 - 0.0 - - - - - - -
29/12:00pm 26.5 E 9 14 1022.4 - 0.0 - - - - - - -
29/11:30am 27.0 E 10 13 1022.7 - 0.0 - - - - - - -
29/11:00am 26.6 E 9 11 1023.2 - 0.0 - - - - - - -
29/10:30am 26.4 E 10 13 1023.4 - 0.0 - - - - - - -
29/10:00am 26.4 E 11 14 1023.4 - 0.0 - - - - - - -
29/09:30am 25.9 E 10 12 1023.3 - 0.0 - - - - - - -
29/09:00am 26.0 E 12 15 1023.2 - 25.2 - - - - - - -
29/08:30am 25.5 E 11 14 1023.0 - 25.2 - - - - - - -
29/08:00am 25.6 E 12 14 1022.8 - 25.2 - - - - - - -
29/07:30am 25.5 E 13 15 1022.1 - 25.2 - - - - - - -
29/07:00am 24.4 E 10 13 1021.8 - 25.2 - - - - - - -
29/06:30am 24.0 E 10 13 1021.5 - 25.2 - - - - - - -
29/06:00am 23.8 ENE 10 15 1021.2 - 25.2 - - - - - - -
29/05:30am 23.6 E 11 14 1020.8 - 25.2 - - - - - - -
29/05:00am 23.6 E 11 14 1020.4 - 25.2 - - - - - - -
29/04:30am 23.7 E 12 15 1020.1 - 25.2 - - - - - - -
29/04:00am 23.7 E 11 14 1019.8 - 25.2 - - - - - - -
29/03:30am 23.8 E 12 14 1019.6 - 25.2 - - - - - - -
29/03:00am 23.8 E 12 15 1019.5 - 25.2 - - - - - - -
29/02:30am 23.9 E 12 15 1019.9 - 25.2 - - - - - - -
29/02:00am 24.1 E 11 14 1020.2 - 25.2 - - - - - - -
29/01:30am 24.2 E 10 13 1020.6 - 25.2 - - - - - - -
29/01:00am 24.2 E 10 14 1020.4 - 25.2 - - - - - - -
29/12:30am 24.2 E 9 11 1020.6 - 25.2 - - - - - - -
29/12:00am 24.2 ENE 10 13 1021.0 - 25.2 - - - - - - -
 
Date/Time
EST
Temp

°C
Wind Pressure Rain
since 9am
mm
Weather Cloud Vis
km
Sea
Height
m
Swell
Dir
 
Speed
knots
Gust
knots
hPa Trend Height
m
Period
s
Dir
28/11:30pm 24.1 ENE 11 13 1021.0 - 25.2 - - - - - - -
28/11:00pm 24.0 E 11 14 1021.4 - 25.2 - - - - - - -
28/10:30pm 24.1 E 11 14 1021.4 - 25.2 - - - - - - -
28/10:00pm 24.3 E 12 15 1021.3 - 25.2 - - - - - - -
28/09:30pm 24.3 E 13 17 1021.4 - 25.2 - - - - - - -
28/09:00pm 24.5 E 13 15 1021.4 - 25.2 - - - - - - -
28/08:30pm 24.6 E 14 16 1021.2 - 25.2 - - - - - - -
28/08:00pm 24.6 E 14 17 1020.9 - 25.2 - - - - - - -
28/07:30pm 24.7 E 13 16 1020.7 - 25.2 - - - - - - -
28/07:00pm 24.5 E 14 16 1020.2 - 25.2 - - - - - - -
28/06:30pm 24.4 E 13 16 1019.9 - 25.2 - - - - - - -
28/06:00pm 24.5 E 15 17 1019.4 - 25.2 - - - - - - -
28/05:30pm 24.8 ESE 14 17 1019.3 - 25.2 - - - - - - -
28/05:00pm 25.1 ESE 15 17 1019.3 - 25.2 - - - - - - -
28/04:30pm 25.4 ESE 15 17 1018.8 - 25.2 - - - - - - -
28/04:00pm 25.7 ESE 13 17 1018.6 - 25.2 - - - - - - -
28/03:30pm 26.0 ESE 14 17 1018.6 - 25.2 - - - - - - -
28/03:00pm 26.0 E 13 15 1018.7 - 25.2 - - - - - - -
28/02:30pm 26.0 ESE 14 16 1018.9 - 25.2 - - - - - - -
28/02:00pm 26.2 ESE 13 15 1019.1 - 25.2 - - - - - - -
28/01:30pm 26.2 ESE 13 15 1019.3 - 25.2 - - - - - - -
28/01:00pm 25.7 ESE 13 15 1019.5 - 25.2 - - - - - - -
28/12:30pm 25.8 ESE 12 15 1019.8 - 25.2 - - - - - - -
28/12:00pm 25.5 ESE 13 15 1020.2 - 25.2 - - - - - - -
28/11:30am 25.1 ESE 14 16 1020.5 - 25.2 - - - - - - -
28/11:00am 24.1 SE 13 15 1021.0 - 25.2 - - - - - - -
28/10:30am 22.7 SE 13 15 1021.3 - 25.0 - - - - - - -
28/10:00am 22.0 SE 11 15 1021.1 - 24.0 - - - - - - -
28/09:30am 22.4 S 15 25 1020.9 - 12.8 - - - - - - -
28/09:00am 22.6 ESE 9 12 1020.9 - 33.0 Showers - - - - - -
28/08:30am 23.0 SE 12 15 1020.6 - 14.6 - - - - - - -
28/08:00am 23.3 ESE 13 16 1020.2 - 1.8 - - - - - - -
28/07:30am 23.5 SSE 10 13 1019.7 - 0.6 - - - - - - -
28/07:00am 24.1 SSE 12 15 1019.2 - 0.0 - - - - - - -
28/06:30am 23.9 S 13 16 1018.9 - 0.0 - - - - - - -
28/06:00am 24.0 ESE 9 12 1018.6 - 0.0 - - - - - - -
28/05:30am 23.8 SSE 11 14 1018.4 - 0.0 - - - - - - -
28/05:00am 23.7 SSE 13 15 1018.2 - 0.0 - - - - - - -
28/04:30am 23.8 SSE 11 13 1017.9 - 0.0 - - - - - - -
28/04:00am 24.2 SE 11 13 1017.8 - 0.0 - - - - - - -
28/03:30am 24.8 SE 11 14 1017.5 - 0.0 - - - - - - -
28/03:00am 24.7 SE 11 12 1017.4 - 0.0 - - - - - - -
28/02:30am 24.9 SE 10 11 1017.6 - 0.0 - - - - - - -
28/02:00am 24.9 SE 10 12 1017.6 - 0.0 - - - - - - -
28/01:30am 24.8 SE 10 13 1017.7 - 0.0 - - - - - - -
28/01:00am 24.8 SE 10 13 1018.0 - 0.0 - - - - - - -
28/12:30am 25.0 ESE 10 13 1018.0 - 0.0 - - - - - - -
28/12:00am 25.2 ESE 10 13 1018.3 - 0.0 - - - - - - -
 
Date/Time
EST
Temp

°C
Wind Pressure Rain
since 9am
mm
Weather Cloud Vis
km
Sea
Height
m
Swell
Dir
 
Speed
knots
Gust
knots
hPa Trend Height
m
Period
s
Dir
27/11:30pm 25.2 ESE 10 13 1018.4 - 0.0 - - - - - - -
27/11:00pm 25.4 ESE 11 14 1018.5 - 0.0 - - - - - - -
27/10:30pm 25.4 ESE 11 13 1018.9 - 0.0 - - - - - - -
27/10:00pm 25.5 ESE 11 14 1019.0 - 0.0 - - - - - - -
27/09:30pm 25.6 ESE 12 14 1018.8 - 0.0 - - - - - - -
27/09:00pm 25.6 E 13 15 1018.8 - 0.0 - - - - - - -
27/08:30pm 25.7 ESE 15 16 1018.8 - 0.0 - - - - - - -
27/08:00pm 25.8 E 13 15 1018.7 - 0.0 - - - - - - -
27/07:30pm 25.7 ESE 13 16 1018.4 - 0.0 - - - - - - -
27/07:00pm 25.8 SE 14 16 1018.1 - 0.0 - - - - - - -
27/06:30pm 25.9 SE 16 18 1017.5 - 0.0 - - - - - - -
27/06:00pm 25.9 SE 15 19 1017.2 - 0.0 - - - - - - -
27/05:30pm 26.1 SE 16 18 1017.0 - 0.0 - - - - - - -
27/05:00pm 26.2 SE 16 18 1016.7 - 0.0 - - - - - - -
27/04:30pm 26.8 SE 15 18 1016.3 - 0.0 - - - - - - -
27/04:00pm 27.3 SE 15 17 1016.1 - 0.0 - - - - - - -
27/03:30pm 27.3 ESE 15 17 1015.9 - 0.0 - - - - - - -
27/03:00pm 27.5 SE 14 17 1015.8 - 0.0 - - - - - - -
27/02:30pm 27.2 SE 15 17 1015.8 - 0.0 - - - - - - -
27/02:00pm 27.6 SE 14 17 1016.0 - 0.0 - - - - - - -
27/01:30pm 27.7 ESE 13 16 1016.3 - 0.0 - - - - - - -
27/01:00pm 28.7 ESE 10 12 1016.6 - 0.0 - - - - - - -
27/12:30pm 28.5 E 10 12 1016.9 - 0.0 - - - - - - -

Other Formats:

Comma delimited format used in spreadsheet applications
http://www.bom.gov.au/fwo/IDQ60701/IDQ60701.95591.axf

JavaScript Object Notation format (JSON) in row-major order
http://www.bom.gov.au/fwo/IDQ60701/IDQ60701.95591.json